Dades de l'estació automàtica Organyà
Resum diari
22:00 TU| Temperatura mitjana | 27.5 °C | |
|---|---|---|
| Temperatura màxima | 39.5 °C | 13:27 TU |
| Temperatura mínima | 19.4 °C | 5:35 TU |
| Humitat relativa mitjana | 37% | |
| Precipitació acumulada | 0.0 mm | |
| Ratxa màxima del vent (10 m) | 40.0 km/h - 38º | 7:03 TU |
| Pressió atmosfèrica mitjana | 1020.2 hPa | |
| Irradiació solar global | 19.7 MJ/m2 | |
El tram horari està expressat en Temps Universal (TU). Cal sumar una hora en horari d'hivern i dues en horari d'estiu per passar a l'hora oficial.
Organyà
| Municipi | Organyà |
|---|---|
| Comarca | Alt Urgell |
| Altitud | 568 m |
| Data alta | 16.01.1996 |
| Estat actual | Operativa |
| Període TU |
TM °C |
TX °C |
TN °C |
HRM % |
PPT mm |
VVM (10 m) km/h |
DVM (10 m) graus |
VVX (10 m) km/h |
PM hPa |
RS W/m2 |
|---|---|---|---|---|---|---|---|---|---|---|
| 00:00 - 00:30 | 22.5 | 22.8 | 22.1 | 52 | 0.0 | 9.7 | 349 | 26.3 | 1022.5 | 0 |
| 00:30 - 01:00 | 22.7 | 23.3 | 21.9 | 50 | 0.0 | 11.2 | 5 | 21.6 | 1022.6 | 0 |
| 01:00 - 01:30 | 22.5 | 23.1 | 21.5 | 51 | 0.0 | 10.4 | 6 | 26.6 | 1022.5 | 0 |
| 01:30 - 02:00 | 21.8 | 22.4 | 20.8 | 53 | 0.0 | 11.9 | 350 | 27.0 | 1022.7 | 0 |
| 02:00 - 02:30 | 21.9 | 22.3 | 21.1 | 53 | 0.0 | 15.8 | 11 | 26.6 | 1022.7 | 0 |
| 02:30 - 03:00 | 21.9 | 22.4 | 21.6 | 53 | 0.0 | 17.3 | 13 | 30.6 | 1022.6 | 0 |
| 03:00 - 03:30 | 22.2 | 22.6 | 21.5 | 52 | 0.0 | 16.9 | 17 | 33.8 | 1022.5 | 0 |
| 03:30 - 04:00 | 21.6 | 22.0 | 21.2 | 53 | 0.0 | 15.5 | 16 | 32.4 | 1022.5 | 0 |
| 04:00 - 04:30 | 21.2 | 21.6 | 20.0 | 55 | 0.0 | 18.7 | 8 | 38.5 | 1022.6 | 0 |
| 04:30 - 05:00 | 20.4 | 20.9 | 19.4 | 58 | 0.0 | 16.6 | 6 | 33.5 | 1022.7 | 0 |
| 05:00 - 05:30 | 20.4 | 21.0 | 20.0 | 58 | 0.0 | 18.4 | 7 | 37.1 | 1022.9 | 0 |
| 05:30 - 06:00 | 20.0 | 20.3 | 19.4 | 59 | 0.0 | 19.4 | 8 | 34.2 | 1023.3 | 19 |
| 06:00 - 06:30 | 20.3 | 20.6 | 20.1 | 58 | 0.0 | 18.4 | 11 | 33.8 | 1023.3 | 48 |
| 06:30 - 07:00 | 20.7 | 21.3 | 20.2 | 58 | 0.0 | 20.5 | 18 | 39.6 | 1023.4 | 108 |
| 07:00 - 07:30 | 21.7 | 22.6 | 21.1 | 55 | 0.0 | 23.4 | 22 | 40.0 | 1023.1 | 251 |
| 07:30 - 08:00 | 23.1 | 23.9 | 22.5 | 51 | 0.0 | 21.2 | 23 | 34.9 | 1022.7 | 350 |
| 08:00 - 08:30 | 24.3 | 25.1 | 23.9 | 48 | 0.0 | 20.9 | 29 | 34.9 | 1022.2 | 447 |
| 08:30 - 09:00 | 25.8 | 26.4 | 25.2 | 44 | 0.0 | 20.9 | 29 | 36.7 | 1021.7 | 535 |
| 09:00 - 09:30 | 27.3 | 28.3 | 26.5 | 40 | 0.0 | 18.0 | 32 | 33.1 | 1021.1 | 615 |
| 09:30 - 10:00 | 29.1 | 29.8 | 28.2 | 36 | 0.0 | 15.5 | 36 | 25.2 | 1020.4 | 686 |
| 10:00 - 10:30 | 30.6 | 31.3 | 29.8 | 34 | 0.0 | 14.8 | 35 | 24.8 | 1019.7 | 740 |
| 10:30 - 11:00 | 32.4 | 33.4 | 31.4 | 30 | 0.0 | 10.8 | 36 | 24.5 | 1018.9 | 784 |
| 11:00 - 11:30 | 34.5 | 36.1 | 33.3 | 27 | 0.0 | 4.0 | 78 | 13.7 | 1017.9 | 811 |
| 11:30 - 12:00 | 36.4 | 37.6 | 35.2 | 22 | 0.0 | 5.0 | 184 | 16.9 | 1017.1 | 824 |
| 12:00 - 12:30 | 38.1 | 38.9 | 37.5 | 17 | 0.0 | 9.7 | 198 | 23.0 | 1016.5 | 830 |
| 12:30 - 13:00 | 38.2 | 38.6 | 37.8 | 14 | 0.0 | 11.5 | 280 | 29.9 | 1016.7 | 819 |
| 13:00 - 13:30 | 38.4 | 39.5 | 37.7 | 14 | 0.0 | 7.9 | 219 | 27.0 | 1016.5 | 784 |
| 13:30 - 14:00 | 38.2 | 39.0 | 37.3 | 14 | 0.0 | 9.4 | 221 | 29.5 | 1016.3 | 683 |
| 14:00 - 14:30 | 37.4 | 38.7 | 36.1 | 17 | 0.0 | 10.4 | 172 | 27.0 | 1016.1 | 398 |
| 14:30 - 15:00 | 35.9 | 36.2 | 35.6 | 19 | 0.0 | 11.5 | 183 | 23.0 | 1016.4 | 273 |
| 15:00 - 15:30 | 36.0 | 36.5 | 35.3 | 18 | 0.0 | 11.2 | 182 | 23.0 | 1016.2 | 327 |
| 15:30 - 16:00 | 35.4 | 35.7 | 35.3 | 18 | 0.0 | 10.8 | 184 | 24.8 | 1016.4 | 266 |
| 16:00 - 16:30 | 34.7 | 35.2 | 34.3 | 18 | 0.0 | 10.8 | 179 | 22.3 | 1016.7 | 147 |
| 16:30 - 17:00 | 33.9 | 34.3 | 33.4 | 18 | 0.0 | 8.3 | 185 | 16.9 | 1017.0 | 77 |
| 17:00 - 17:30 | 33.1 | 33.6 | 32.7 | 18 | 0.0 | 5.4 | 182 | 11.5 | 1017.3 | 77 |
| 17:30 - 18:00 | 32.6 | 33.5 | 31.5 | 19 | 0.0 | 4.7 | 185 | 7.9 | 1017.6 | 70 |
| 18:00 - 18:30 | 29.9 | 31.4 | 28.6 | 24 | 0.0 | 2.9 | 40 | 7.6 | 1018.4 | 6 |
| 18:30 - 19:00 | 28.0 | 29.6 | 26.8 | 27 | 0.0 | 6.5 | 327 | 16.2 | 1019.1 | 0 |
| 19:00 - 19:30 | 25.7 | 26.9 | 24.8 | 32 | 0.0 | 4.3 | 314 | 8.6 | 1020.2 | 0 |
| 19:30 - 20:00 | 24.6 | 25.5 | 24.1 | 34 | 0.0 | 3.2 | 311 | 7.2 | 1020.9 | 0 |
| 20:00 - 20:30 | 23.7 | 24.3 | 23.2 | 35 | 0.0 | 3.6 | 300 | 11.9 | 1021.6 | 0 |
| 20:30 - 21:00 | 22.4 | 23.1 | 21.6 | 38 | 0.0 | 5.0 | 339 | 10.8 | 1022.2 | 0 |
| 21:00 - 21:30 | 22.8 | 23.6 | 22.1 | 36 | 0.0 | 6.5 | 318 | 11.5 | 1022.2 | 0 |
| 21:30 - 22:00 | 21.9 | 22.6 | 21.5 | 38 | 0.0 | 4.7 | 314 | 11.2 | 1022.4 | 0 |
| 22:00 - 22:30 | 22.7 | 24.5 | 21.4 | 36 | 0.0 | 7.9 | 336 | 21.6 | 1022.6 | 0 |
Les dades en taronja només han passat un control de qualitat automàtic. Resta pendent la seva validació definitiva.